sensor_id;sensor_type;location;lat;lon;timestamp;P1;durP1;ratioP1;P2;durP2;ratioP2
17482;SDS011;8858;52.308;20.994;2024-02-28T00:01:12;54.80;;;39.10;;
17482;SDS011;8858;52.308;20.994;2024-02-28T00:03:40;53.13;;;38.10;;
17482;SDS011;8858;52.308;20.994;2024-02-28T00:06:09;53.47;;;37.43;;
17482;SDS011;8858;52.308;20.994;2024-02-28T00:08:40;52.73;;;34.93;;
17482;SDS011;8858;52.308;20.994;2024-02-28T00:11:09;52.47;;;36.10;;
17482;SDS011;8858;52.308;20.994;2024-02-28T00:13:37;52.57;;;37.13;;
17482;SDS011;8858;52.308;20.994;2024-02-28T00:16:06;51.70;;;37.80;;
17482;SDS011;8858;52.308;20.994;2024-02-28T00:18:34;52.17;;;37.30;;
17482;SDS011;8858;52.308;20.994;2024-02-28T00:21:03;53.97;;;36.30;;
17482;SDS011;8858;52.308;20.994;2024-02-28T00:23:32;54.97;;;38.13;;
17482;SDS011;8858;52.308;20.994;2024-02-28T00:26:03;51.80;;;37.43;;
17482;SDS011;8858;52.308;20.994;2024-02-28T00:28:57;53.17;;;37.50;;
17482;SDS011;8858;52.308;20.994;2024-02-28T00:31:25;49.60;;;36.53;;
17482;SDS011;8858;52.308;20.994;2024-02-28T00:33:53;51.07;;;37.63;;
17482;SDS011;8858;52.308;20.994;2024-02-28T00:36:22;53.80;;;37.70;;
17482;SDS011;8858;52.308;20.994;2024-02-28T00:38:50;52.80;;;37.43;;
17482;SDS011;8858;52.308;20.994;2024-02-28T00:41:20;53.43;;;37.30;;
17482;SDS011;8858;52.308;20.994;2024-02-28T00:43:49;46.70;;;36.70;;
17482;SDS011;8858;52.308;20.994;2024-02-28T00:46:19;54.50;;;37.50;;
17482;SDS011;8858;52.308;20.994;2024-02-28T00:48:54;57.13;;;38.43;;
17482;SDS011;8858;52.308;20.994;2024-02-28T00:51:27;49.30;;;37.33;;
17482;SDS011;8858;52.308;20.994;2024-02-28T00:53:58;51.77;;;37.03;;
17482;SDS011;8858;52.308;20.994;2024-02-28T00:56:55;52.10;;;38.13;;
17482;SDS011;8858;52.308;20.994;2024-02-28T00:59:27;58.57;;;37.57;;
17482;SDS011;8858;52.308;20.994;2024-02-28T01:01:57;51.57;;;34.23;;
17482;SDS011;8858;52.308;20.994;2024-02-28T01:04:28;54.27;;;36.20;;
17482;SDS011;8858;52.308;20.994;2024-02-28T01:06:58;52.50;;;35.90;;
17482;SDS011;8858;52.308;20.994;2024-02-28T01:09:27;47.77;;;35.03;;
17482;SDS011;8858;52.308;20.994;2024-02-28T01:11:58;48.57;;;36.00;;
17482;SDS011;8858;52.308;20.994;2024-02-28T01:14:27;55.50;;;35.17;;
17482;SDS011;8858;52.308;20.994;2024-02-28T01:16:56;46.23;;;35.47;;
17482;SDS011;8858;52.308;20.994;2024-02-28T01:19:24;48.07;;;34.43;;
17482;SDS011;8858;52.308;20.994;2024-02-28T01:21:53;52.87;;;35.57;;
17482;SDS011;8858;52.308;20.994;2024-02-28T01:24:24;45.03;;;33.80;;
17482;SDS011;8858;52.308;20.994;2024-02-28T01:26:53;45.87;;;32.20;;
17482;SDS011;8858;52.308;20.994;2024-02-28T01:29:23;41.90;;;31.63;;
17482;SDS011;8858;52.308;20.994;2024-02-28T01:31:51;43.43;;;31.27;;
17482;SDS011;8858;52.308;20.994;2024-02-28T01:34:19;39.77;;;30.87;;
17482;SDS011;8858;52.308;20.994;2024-02-28T01:36:48;38.70;;;30.90;;
17482;SDS011;8858;52.308;20.994;2024-02-28T01:39:17;46.43;;;31.73;;
17482;SDS011;8858;52.308;20.994;2024-02-28T01:41:51;41.83;;;30.87;;
17482;SDS011;8858;52.308;20.994;2024-02-28T01:44:20;44.47;;;29.83;;
17482;SDS011;8858;52.308;20.994;2024-02-28T01:46:50;41.53;;;29.47;;
17482;SDS011;8858;52.308;20.994;2024-02-28T01:49:22;38.90;;;29.13;;
17482;SDS011;8858;52.308;20.994;2024-02-28T01:51:51;39.40;;;29.13;;
17482;SDS011;8858;52.308;20.994;2024-02-28T01:54:23;40.57;;;28.40;;
17482;SDS011;8858;52.308;20.994;2024-02-28T01:56:52;40.33;;;27.67;;
17482;SDS011;8858;52.308;20.994;2024-02-28T01:59:21;39.60;;;28.10;;
17482;SDS011;8858;52.308;20.994;2024-02-28T02:01:55;40.40;;;29.40;;
17482;SDS011;8858;52.308;20.994;2024-02-28T02:04:32;40.30;;;29.60;;
17482;SDS011;8858;52.308;20.994;2024-02-28T02:07:03;37.57;;;29.17;;
17482;SDS011;8858;52.308;20.994;2024-02-28T02:09:36;40.70;;;30.53;;
17482;SDS011;8858;52.308;20.994;2024-02-28T02:12:30;37.80;;;28.37;;
17482;SDS011;8858;52.308;20.994;2024-02-28T02:15:04;39.33;;;30.27;;
17482;SDS011;8858;52.308;20.994;2024-02-28T02:17:35;41.20;;;28.53;;
17482;SDS011;8858;52.308;20.994;2024-02-28T02:20:04;40.90;;;29.10;;
17482;SDS011;8858;52.308;20.994;2024-02-28T02:22:35;39.53;;;29.93;;
17482;SDS011;8858;52.308;20.994;2024-02-28T02:25:11;37.87;;;29.70;;
17482;SDS011;8858;52.308;20.994;2024-02-28T02:27:41;33.27;;;27.37;;
17482;SDS011;8858;52.308;20.994;2024-02-28T02:30:10;40.57;;;28.70;;
17482;SDS011;8858;52.308;20.994;2024-02-28T02:32:40;38.47;;;29.20;;
17482;SDS011;8858;52.308;20.994;2024-02-28T02:35:09;40.43;;;29.13;;
17482;SDS011;8858;52.308;20.994;2024-02-28T02:37:44;41.33;;;30.50;;
17482;SDS011;8858;52.308;20.994;2024-02-28T02:40:15;40.47;;;29.87;;
17482;SDS011;8858;52.308;20.994;2024-02-28T02:42:43;36.40;;;30.13;;
17482;SDS011;8858;52.308;20.994;2024-02-28T02:45:12;41.53;;;29.73;;
17482;SDS011;8858;52.308;20.994;2024-02-28T02:47:40;42.67;;;29.50;;
17482;SDS011;8858;52.308;20.994;2024-02-28T02:50:10;37.97;;;29.87;;
17482;SDS011;8858;52.308;20.994;2024-02-28T02:52:40;39.97;;;30.00;;
17482;SDS011;8858;52.308;20.994;2024-02-28T02:55:11;40.60;;;29.60;;
17482;SDS011;8858;52.308;20.994;2024-02-28T02:57:40;34.63;;;29.27;;
17482;SDS011;8858;52.308;20.994;2024-02-28T03:00:10;36.73;;;28.33;;
17482;SDS011;8858;52.308;20.994;2024-02-28T03:02:39;39.23;;;30.53;;
17482;SDS011;8858;52.308;20.994;2024-02-28T03:05:09;36.07;;;29.37;;
17482;SDS011;8858;52.308;20.994;2024-02-28T03:07:37;38.53;;;30.67;;
17482;SDS011;8858;52.308;20.994;2024-02-28T03:10:06;37.73;;;29.37;;
17482;SDS011;8858;52.308;20.994;2024-02-28T03:12:37;37.43;;;29.93;;
17482;SDS011;8858;52.308;20.994;2024-02-28T03:15:06;37.73;;;30.27;;
17482;SDS011;8858;52.308;20.994;2024-02-28T03:17:35;35.33;;;29.03;;
17482;SDS011;8858;52.308;20.994;2024-02-28T03:20:04;38.43;;;29.97;;
17482;SDS011;8858;52.308;20.994;2024-02-28T03:22:35;39.07;;;29.77;;
17482;SDS011;8858;52.308;20.994;2024-02-28T03:25:04;39.57;;;29.30;;
17482;SDS011;8858;52.308;20.994;2024-02-28T03:27:34;40.10;;;30.03;;
17482;SDS011;8858;52.308;20.994;2024-02-28T03:30:05;39.00;;;31.20;;
17482;SDS011;8858;52.308;20.994;2024-02-28T03:32:38;38.67;;;30.67;;
17482;SDS011;8858;52.308;20.994;2024-02-28T03:35:07;35.27;;;28.93;;
17482;SDS011;8858;52.308;20.994;2024-02-28T03:37:36;35.97;;;29.37;;
17482;SDS011;8858;52.308;20.994;2024-02-28T03:40:05;40.53;;;29.93;;
17482;SDS011;8858;52.308;20.994;2024-02-28T03:42:35;35.83;;;28.93;;
17482;SDS011;8858;52.308;20.994;2024-02-28T03:45:06;35.40;;;28.37;;
17482;SDS011;8858;52.308;20.994;2024-02-28T03:47:35;35.33;;;29.93;;
17482;SDS011;8858;52.308;20.994;2024-02-28T03:50:05;39.33;;;30.43;;
17482;SDS011;8858;52.308;20.994;2024-02-28T03:52:36;37.23;;;30.10;;
17482;SDS011;8858;52.308;20.994;2024-02-28T03:55:05;36.80;;;29.67;;
17482;SDS011;8858;52.308;20.994;2024-02-28T03:57:34;37.60;;;29.23;;
17482;SDS011;8858;52.308;20.994;2024-02-28T04:00:05;33.57;;;28.27;;
17482;SDS011;8858;52.308;20.994;2024-02-28T04:02:40;37.40;;;29.13;;
17482;SDS011;8858;52.308;20.994;2024-02-28T04:05:08;36.00;;;28.20;;
17482;SDS011;8858;52.308;20.994;2024-02-28T04:07:38;32.50;;;27.87;;
17482;SDS011;8858;52.308;20.994;2024-02-28T04:10:07;32.40;;;27.27;;
17482;SDS011;8858;52.308;20.994;2024-02-28T04:12:38;37.53;;;28.40;;
17482;SDS011;8858;52.308;20.994;2024-02-28T04:15:09;33.33;;;27.73;;
17482;SDS011;8858;52.308;20.994;2024-02-28T04:17:41;31.57;;;27.97;;
17482;SDS011;8858;52.308;20.994;2024-02-28T04:20:11;35.53;;;28.63;;
17482;SDS011;8858;52.308;20.994;2024-02-28T04:22:40;32.43;;;26.77;;
17482;SDS011;8858;52.308;20.994;2024-02-28T04:25:10;32.70;;;27.23;;
17482;SDS011;8858;52.308;20.994;2024-02-28T04:27:38;33.80;;;27.30;;
17482;SDS011;8858;52.308;20.994;2024-02-28T04:30:07;31.83;;;27.27;;
17482;SDS011;8858;52.308;20.994;2024-02-28T04:32:38;33.83;;;27.93;;
17482;SDS011;8858;52.308;20.994;2024-02-28T04:35:09;35.73;;;27.03;;
17482;SDS011;8858;52.308;20.994;2024-02-28T04:37:38;32.57;;;27.77;;
17482;SDS011;8858;52.308;20.994;2024-02-28T04:40:08;34.67;;;27.67;;
17482;SDS011;8858;52.308;20.994;2024-02-28T04:42:38;31.70;;;27.40;;
17482;SDS011;8858;52.308;20.994;2024-02-28T04:45:08;36.67;;;28.97;;
17482;SDS011;8858;52.308;20.994;2024-02-28T04:47:39;33.37;;;28.50;;
17482;SDS011;8858;52.308;20.994;2024-02-28T04:50:10;34.73;;;28.17;;
17482;SDS011;8858;52.308;20.994;2024-02-28T04:52:39;33.97;;;28.53;;
17482;SDS011;8858;52.308;20.994;2024-02-28T04:55:09;36.90;;;30.30;;
17482;SDS011;8858;52.308;20.994;2024-02-28T04:57:42;39.33;;;29.03;;
17482;SDS011;8858;52.308;20.994;2024-02-28T05:00:11;39.67;;;30.17;;
17482;SDS011;8858;52.308;20.994;2024-02-28T05:02:41;37.60;;;30.07;;
17482;SDS011;8858;52.308;20.994;2024-02-28T05:05:12;36.83;;;28.47;;
17482;SDS011;8858;52.308;20.994;2024-02-28T05:07:41;34.00;;;27.83;;
17482;SDS011;8858;52.308;20.994;2024-02-28T05:10:11;36.80;;;30.37;;
17482;SDS011;8858;52.308;20.994;2024-02-28T05:12:41;37.23;;;29.77;;
17482;SDS011;8858;52.308;20.994;2024-02-28T05:15:09;32.30;;;28.40;;
17482;SDS011;8858;52.308;20.994;2024-02-28T05:17:43;34.27;;;27.37;;
17482;SDS011;8858;52.308;20.994;2024-02-28T05:20:11;40.17;;;30.97;;
17482;SDS011;8858;52.308;20.994;2024-02-28T05:22:41;39.10;;;30.27;;
17482;SDS011;8858;52.308;20.994;2024-02-28T05:25:10;35.93;;;28.67;;
17482;SDS011;8858;52.308;20.994;2024-02-28T05:27:38;40.00;;;29.77;;
17482;SDS011;8858;52.308;20.994;2024-02-28T05:30:10;36.17;;;28.70;;
17482;SDS011;8858;52.308;20.994;2024-02-28T05:32:40;37.63;;;29.33;;
17482;SDS011;8858;52.308;20.994;2024-02-28T05:35:09;32.53;;;26.77;;
17482;SDS011;8858;52.308;20.994;2024-02-28T05:37:38;40.10;;;29.90;;
17482;SDS011;8858;52.308;20.994;2024-02-28T05:40:07;36.87;;;28.47;;
17482;SDS011;8858;52.308;20.994;2024-02-28T05:42:40;34.07;;;28.10;;
17482;SDS011;8858;52.308;20.994;2024-02-28T05:45:09;30.57;;;26.57;;
17482;SDS011;8858;52.308;20.994;2024-02-28T05:47:39;34.90;;;29.90;;
17482;SDS011;8858;52.308;20.994;2024-02-28T05:50:07;32.50;;;27.03;;
17482;SDS011;8858;52.308;20.994;2024-02-28T05:52:36;32.73;;;26.57;;
17482;SDS011;8858;52.308;20.994;2024-02-28T05:55:05;36.53;;;26.70;;
17482;SDS011;8858;52.308;20.994;2024-02-28T05:57:35;35.40;;;28.27;;
17482;SDS011;8858;52.308;20.994;2024-02-28T06:00:04;34.67;;;27.53;;
17482;SDS011;8858;52.308;20.994;2024-02-28T06:02:37;33.40;;;27.10;;
17482;SDS011;8858;52.308;20.994;2024-02-28T06:05:05;34.97;;;27.90;;
17482;SDS011;8858;52.308;20.994;2024-02-28T06:07:37;36.20;;;28.20;;
17482;SDS011;8858;52.308;20.994;2024-02-28T06:10:05;33.47;;;26.57;;
17482;SDS011;8858;52.308;20.994;2024-02-28T06:12:35;41.10;;;30.20;;
17482;SDS011;8858;52.308;20.994;2024-02-28T06:15:04;42.40;;;32.23;;
17482;SDS011;8858;52.308;20.994;2024-02-28T06:17:33;37.97;;;30.93;;
17482;SDS011;8858;52.308;20.994;2024-02-28T06:20:01;37.10;;;30.10;;
17482;SDS011;8858;52.308;20.994;2024-02-28T06:22:31;35.07;;;28.83;;
17482;SDS011;8858;52.308;20.994;2024-02-28T06:25:01;37.93;;;31.43;;
17482;SDS011;8858;52.308;20.994;2024-02-28T06:27:30;46.67;;;34.03;;
17482;SDS011;8858;52.308;20.994;2024-02-28T06:29:58;41.73;;;33.00;;
17482;SDS011;8858;52.308;20.994;2024-02-28T06:32:28;39.53;;;32.57;;
17482;SDS011;8858;52.308;20.994;2024-02-28T06:34:56;42.37;;;31.80;;
17482;SDS011;8858;52.308;20.994;2024-02-28T06:37:27;40.23;;;31.17;;
17482;SDS011;8858;52.308;20.994;2024-02-28T06:39:56;48.40;;;35.90;;
17482;SDS011;8858;52.308;20.994;2024-02-28T06:42:25;48.53;;;36.40;;
17482;SDS011;8858;52.308;20.994;2024-02-28T06:44:57;47.00;;;36.80;;
17482;SDS011;8858;52.308;20.994;2024-02-28T06:47:26;46.67;;;37.07;;
17482;SDS011;8858;52.308;20.994;2024-02-28T06:49:56;44.87;;;37.10;;
17482;SDS011;8858;52.308;20.994;2024-02-28T06:52:24;52.13;;;39.90;;
17482;SDS011;8858;52.308;20.994;2024-02-28T06:54:52;51.30;;;41.17;;
17482;SDS011;8858;52.308;20.994;2024-02-28T06:57:25;48.60;;;38.73;;
17482;SDS011;8858;52.308;20.994;2024-02-28T06:59:54;49.50;;;40.07;;
17482;SDS011;8858;52.308;20.994;2024-02-28T07:02:23;49.83;;;41.33;;
17482;SDS011;8858;52.308;20.994;2024-02-28T07:04:52;51.20;;;42.47;;
17482;SDS011;8858;52.308;20.994;2024-02-28T07:07:21;52.57;;;41.37;;
17482;SDS011;8858;52.308;20.994;2024-02-28T07:09:49;56.50;;;43.67;;
17482;SDS011;8858;52.308;20.994;2024-02-28T07:12:17;55.03;;;43.30;;
17482;SDS011;8858;52.308;20.994;2024-02-28T07:14:47;52.97;;;42.30;;
17482;SDS011;8858;52.308;20.994;2024-02-28T07:17:15;51.27;;;42.63;;
17482;SDS011;8858;52.308;20.994;2024-02-28T07:19:45;50.07;;;40.90;;
17482;SDS011;8858;52.308;20.994;2024-02-28T07:22:13;50.83;;;42.40;;
17482;SDS011;8858;52.308;20.994;2024-02-28T07:24:42;56.90;;;42.80;;
17482;SDS011;8858;52.308;20.994;2024-02-28T07:27:10;51.27;;;42.33;;
17482;SDS011;8858;52.308;20.994;2024-02-28T07:29:38;51.47;;;41.57;;
17482;SDS011;8858;52.308;20.994;2024-02-28T07:32:08;50.83;;;42.07;;
17482;SDS011;8858;52.308;20.994;2024-02-28T07:34:38;47.90;;;41.17;;
17482;SDS011;8858;52.308;20.994;2024-02-28T07:37:07;49.60;;;40.60;;
17482;SDS011;8858;52.308;20.994;2024-02-28T07:39:36;51.23;;;41.83;;
17482;SDS011;8858;52.308;20.994;2024-02-28T07:42:08;52.13;;;41.53;;
17482;SDS011;8858;52.308;20.994;2024-02-28T07:44:36;48.73;;;40.97;;
17482;SDS011;8858;52.308;20.994;2024-02-28T07:47:05;53.93;;;41.93;;
17482;SDS011;8858;52.308;20.994;2024-02-28T07:49:35;52.23;;;40.73;;
17482;SDS011;8858;52.308;20.994;2024-02-28T07:52:03;49.57;;;39.47;;
17482;SDS011;8858;52.308;20.994;2024-02-28T07:54:32;52.70;;;42.00;;
17482;SDS011;8858;52.308;20.994;2024-02-28T07:57:01;51.10;;;40.70;;
17482;SDS011;8858;52.308;20.994;2024-02-28T07:59:30;48.97;;;39.70;;
17482;SDS011;8858;52.308;20.994;2024-02-28T08:01:58;48.17;;;39.07;;
17482;SDS011;8858;52.308;20.994;2024-02-28T08:04:28;46.00;;;37.87;;
17482;SDS011;8858;52.308;20.994;2024-02-28T08:06:58;48.63;;;39.40;;
17482;SDS011;8858;52.308;20.994;2024-02-28T08:09:27;46.17;;;37.37;;
17482;SDS011;8858;52.308;20.994;2024-02-28T08:11:56;44.80;;;37.90;;
17482;SDS011;8858;52.308;20.994;2024-02-28T08:14:26;45.93;;;38.00;;
17482;SDS011;8858;52.308;20.994;2024-02-28T08:16:55;46.70;;;38.13;;
17482;SDS011;8858;52.308;20.994;2024-02-28T08:19:23;43.43;;;36.47;;
17482;SDS011;8858;52.308;20.994;2024-02-28T08:21:53;44.03;;;37.17;;
17482;SDS011;8858;52.308;20.994;2024-02-28T08:24:22;44.43;;;36.63;;
17482;SDS011;8858;52.308;20.994;2024-02-28T08:26:52;43.53;;;36.87;;
17482;SDS011;8858;52.308;20.994;2024-02-28T08:29:21;44.07;;;36.93;;
17482;SDS011;8858;52.308;20.994;2024-02-28T08:31:50;44.90;;;36.50;;
17482;SDS011;8858;52.308;20.994;2024-02-28T08:34:20;45.10;;;36.97;;
17482;SDS011;8858;52.308;20.994;2024-02-28T08:36:48;44.70;;;36.57;;
17482;SDS011;8858;52.308;20.994;2024-02-28T08:39:21;44.10;;;35.77;;
17482;SDS011;8858;52.308;20.994;2024-02-28T08:41:51;46.60;;;35.80;;
17482;SDS011;8858;52.308;20.994;2024-02-28T08:44:19;45.30;;;37.07;;
17482;SDS011;8858;52.308;20.994;2024-02-28T08:46:49;46.00;;;36.80;;
17482;SDS011;8858;52.308;20.994;2024-02-28T08:49:17;47.23;;;38.33;;
17482;SDS011;8858;52.308;20.994;2024-02-28T08:51:50;44.97;;;36.33;;
17482;SDS011;8858;52.308;20.994;2024-02-28T08:54:23;44.97;;;36.13;;
17482;SDS011;8858;52.308;20.994;2024-02-28T08:56:56;47.70;;;37.17;;
17482;SDS011;8858;52.308;20.994;2024-02-28T08:59:29;41.63;;;36.63;;
17482;SDS011;8858;52.308;20.994;2024-02-28T09:01:58;43.93;;;36.23;;
17482;SDS011;8858;52.308;20.994;2024-02-28T09:04:26;43.37;;;36.13;;
17482;SDS011;8858;52.308;20.994;2024-02-28T09:06:55;46.07;;;37.57;;
17482;SDS011;8858;52.308;20.994;2024-02-28T09:09:27;43.77;;;36.90;;
17482;SDS011;8858;52.308;20.994;2024-02-28T09:11:56;44.37;;;36.60;;
17482;SDS011;8858;52.308;20.994;2024-02-28T09:14:25;41.13;;;35.23;;
17482;SDS011;8858;52.308;20.994;2024-02-28T09:16:54;44.07;;;36.33;;
17482;SDS011;8858;52.308;20.994;2024-02-28T09:19:31;45.03;;;35.53;;
17482;SDS011;8858;52.308;20.994;2024-02-28T09:22:00;38.83;;;34.60;;
17482;SDS011;8858;52.308;20.994;2024-02-28T09:24:30;43.30;;;35.67;;
17482;SDS011;8858;52.308;20.994;2024-02-28T09:27:00;44.97;;;35.50;;
17482;SDS011;8858;52.308;20.994;2024-02-28T09:29:29;40.13;;;33.93;;
17482;SDS011;8858;52.308;20.994;2024-02-28T09:32:01;40.30;;;34.07;;
17482;SDS011;8858;52.308;20.994;2024-02-28T09:34:29;42.43;;;34.37;;
17482;SDS011;8858;52.308;20.994;2024-02-28T09:36:58;41.17;;;34.97;;
17482;SDS011;8858;52.308;20.994;2024-02-28T09:39:28;39.83;;;35.03;;
17482;SDS011;8858;52.308;20.994;2024-02-28T09:41:58;40.67;;;34.73;;
17482;SDS011;8858;52.308;20.994;2024-02-28T09:44:27;40.40;;;33.83;;
17482;SDS011;8858;52.308;20.994;2024-02-28T09:46:58;42.73;;;34.10;;
17482;SDS011;8858;52.308;20.994;2024-02-28T09:49:26;44.57;;;32.37;;
17482;SDS011;8858;52.308;20.994;2024-02-28T09:51:58;39.67;;;33.37;;
17482;SDS011;8858;52.308;20.994;2024-02-28T09:54:29;41.27;;;32.17;;
17482;SDS011;8858;52.308;20.994;2024-02-28T09:56:59;43.57;;;32.93;;
17482;SDS011;8858;52.308;20.994;2024-02-28T09:59:27;37.53;;;32.10;;
17482;SDS011;8858;52.308;20.994;2024-02-28T10:02:12;41.20;;;33.27;;
17482;SDS011;8858;52.308;20.994;2024-02-28T10:04:45;39.17;;;33.00;;
17482;SDS011;8858;52.308;20.994;2024-02-28T10:07:13;39.43;;;33.97;;
17482;SDS011;8858;52.308;20.994;2024-02-28T10:09:41;38.33;;;33.90;;
17482;SDS011;8858;52.308;20.994;2024-02-28T10:12:11;40.03;;;33.73;;
17482;SDS011;8858;52.308;20.994;2024-02-28T10:14:40;42.33;;;35.10;;
17482;SDS011;8858;52.308;20.994;2024-02-28T10:17:08;41.50;;;33.67;;
17482;SDS011;8858;52.308;20.994;2024-02-28T10:19:36;40.10;;;34.53;;
17482;SDS011;8858;52.308;20.994;2024-02-28T10:22:06;39.57;;;33.50;;
17482;SDS011;8858;52.308;20.994;2024-02-28T10:24:34;41.30;;;33.73;;
17482;SDS011;8858;52.308;20.994;2024-02-28T10:27:04;36.80;;;32.80;;
17482;SDS011;8858;52.308;20.994;2024-02-28T10:29:34;42.00;;;33.90;;
17482;SDS011;8858;52.308;20.994;2024-02-28T10:32:03;39.40;;;34.57;;
17482;SDS011;8858;52.308;20.994;2024-02-28T10:34:32;39.03;;;34.60;;
17482;SDS011;8858;52.308;20.994;2024-02-28T10:37:01;43.43;;;35.20;;
17482;SDS011;8858;52.308;20.994;2024-02-28T10:39:36;42.70;;;33.77;;
17482;SDS011;8858;52.308;20.994;2024-02-28T10:42:05;43.53;;;35.40;;
17482;SDS011;8858;52.308;20.994;2024-02-28T10:44:37;45.23;;;34.80;;
17482;SDS011;8858;52.308;20.994;2024-02-28T10:47:07;41.10;;;34.07;;
17482;SDS011;8858;52.308;20.994;2024-02-28T10:49:39;39.30;;;34.37;;
17482;SDS011;8858;52.308;20.994;2024-02-28T10:52:07;44.23;;;35.87;;
17482;SDS011;8858;52.308;20.994;2024-02-28T10:54:39;48.53;;;37.03;;
17482;SDS011;8858;52.308;20.994;2024-02-28T10:57:12;46.53;;;36.90;;
17482;SDS011;8858;52.308;20.994;2024-02-28T10:59:44;46.10;;;35.63;;
17482;SDS011;8858;52.308;20.994;2024-02-28T11:02:13;43.30;;;36.77;;
17482;SDS011;8858;52.308;20.994;2024-02-28T11:04:42;46.80;;;35.80;;
17482;SDS011;8858;52.308;20.994;2024-02-28T11:07:11;44.10;;;36.23;;
17482;SDS011;8858;52.308;20.994;2024-02-28T11:09:46;44.23;;;36.77;;
17482;SDS011;8858;52.308;20.994;2024-02-28T11:12:23;43.33;;;37.17;;
17482;SDS011;8858;52.308;20.994;2024-02-28T11:14:59;46.43;;;37.83;;
17482;SDS011;8858;52.308;20.994;2024-02-28T11:17:29;48.57;;;38.03;;
17482;SDS011;8858;52.308;20.994;2024-02-28T11:19:58;49.17;;;39.77;;
17482;SDS011;8858;52.308;20.994;2024-02-28T11:22:27;48.67;;;40.40;;
17482;SDS011;8858;52.308;20.994;2024-02-28T11:24:56;49.47;;;40.87;;
17482;SDS011;8858;52.308;20.994;2024-02-28T11:27:25;52.90;;;40.10;;
17482;SDS011;8858;52.308;20.994;2024-02-28T11:29:53;59.57;;;46.13;;
17482;SDS011;8858;52.308;20.994;2024-02-28T11:32:30;57.60;;;47.63;;
17482;SDS011;8858;52.308;20.994;2024-02-28T11:35:10;57.67;;;47.53;;
17482;SDS011;8858;52.308;20.994;2024-02-28T11:37:41;65.77;;;50.47;;
17482;SDS011;8858;52.308;20.994;2024-02-28T11:40:13;63.33;;;49.47;;
17482;SDS011;8858;52.308;20.994;2024-02-28T11:42:43;61.50;;;49.13;;
17482;SDS011;8858;52.308;20.994;2024-02-28T11:45:11;68.27;;;52.33;;
17482;SDS011;8858;52.308;20.994;2024-02-28T11:47:41;66.83;;;50.60;;
17482;SDS011;8858;52.308;20.994;2024-02-28T11:50:10;62.17;;;49.20;;
17482;SDS011;8858;52.308;20.994;2024-02-28T11:52:39;68.50;;;51.23;;
17482;SDS011;8858;52.308;20.994;2024-02-28T11:55:09;64.77;;;51.10;;
17482;SDS011;8858;52.308;20.994;2024-02-28T11:57:38;65.63;;;49.27;;
17482;SDS011;8858;52.308;20.994;2024-02-28T12:00:07;64.97;;;50.20;;
17482;SDS011;8858;52.308;20.994;2024-02-28T12:02:41;66.87;;;51.27;;
17482;SDS011;8858;52.308;20.994;2024-02-28T12:05:11;63.53;;;50.47;;
17482;SDS011;8858;52.308;20.994;2024-02-28T12:07:39;66.90;;;50.07;;
17482;SDS011;8858;52.308;20.994;2024-02-28T12:10:10;66.50;;;49.73;;
17482;SDS011;8858;52.308;20.994;2024-02-28T12:12:38;65.57;;;49.67;;
17482;SDS011;8858;52.308;20.994;2024-02-28T12:15:07;67.87;;;49.10;;
17482;SDS011;8858;52.308;20.994;2024-02-28T12:17:39;64.27;;;48.37;;
17482;SDS011;8858;52.308;20.994;2024-02-28T12:20:09;66.03;;;47.37;;
17482;SDS011;8858;52.308;20.994;2024-02-28T12:22:38;63.87;;;46.90;;
17482;SDS011;8858;52.308;20.994;2024-02-28T12:25:07;59.00;;;44.43;;
17482;SDS011;8858;52.308;20.994;2024-02-28T12:27:36;58.27;;;44.77;;
17482;SDS011;8858;52.308;20.994;2024-02-28T12:30:05;56.23;;;44.07;;
17482;SDS011;8858;52.308;20.994;2024-02-28T12:32:34;53.80;;;43.50;;
17482;SDS011;8858;52.308;20.994;2024-02-28T12:35:03;60.70;;;46.50;;
17482;SDS011;8858;52.308;20.994;2024-02-28T12:37:35;54.37;;;45.13;;
17482;SDS011;8858;52.308;20.994;2024-02-28T12:40:04;55.23;;;44.27;;
17482;SDS011;8858;52.308;20.994;2024-02-28T12:42:35;49.37;;;41.17;;
17482;SDS011;8858;52.308;20.994;2024-02-28T12:45:06;49.53;;;41.47;;
17482;SDS011;8858;52.308;20.994;2024-02-28T12:47:35;50.13;;;40.73;;
17482;SDS011;8858;52.308;20.994;2024-02-28T12:50:08;54.10;;;41.97;;
17482;SDS011;8858;52.308;20.994;2024-02-28T12:52:38;51.90;;;40.63;;
17482;SDS011;8858;52.308;20.994;2024-02-28T12:55:09;51.77;;;41.47;;
17482;SDS011;8858;52.308;20.994;2024-02-28T12:57:36;49.50;;;40.20;;
17482;SDS011;8858;52.308;20.994;2024-02-28T13:00:05;48.87;;;38.67;;
17482;SDS011;8858;52.308;20.994;2024-02-28T13:02:34;48.13;;;39.37;;
17482;SDS011;8858;52.308;20.994;2024-02-28T13:05:04;46.40;;;38.23;;
17482;SDS011;8858;52.308;20.994;2024-02-28T13:07:36;42.63;;;35.20;;
17482;SDS011;8858;52.308;20.994;2024-02-28T13:10:06;41.27;;;32.47;;
17482;SDS011;8858;52.308;20.994;2024-02-28T13:12:37;39.47;;;32.03;;
17482;SDS011;8858;52.308;20.994;2024-02-28T13:15:06;39.70;;;31.63;;
17482;SDS011;8858;52.308;20.994;2024-02-28T13:17:35;35.50;;;28.77;;
17482;SDS011;8858;52.308;20.994;2024-02-28T13:20:04;34.33;;;28.37;;
17482;SDS011;8858;52.308;20.994;2024-02-28T13:22:34;35.80;;;29.17;;
17482;SDS011;8858;52.308;20.994;2024-02-28T13:25:03;33.00;;;27.27;;
17482;SDS011;8858;52.308;20.994;2024-02-28T13:27:35;34.53;;;26.97;;
17482;SDS011;8858;52.308;20.994;2024-02-28T13:30:04;33.07;;;26.67;;
17482;SDS011;8858;52.308;20.994;2024-02-28T13:32:33;35.97;;;28.10;;
17482;SDS011;8858;52.308;20.994;2024-02-28T13:35:02;36.40;;;27.43;;
17482;SDS011;8858;52.308;20.994;2024-02-28T13:37:31;34.93;;;27.50;;
17482;SDS011;8858;52.308;20.994;2024-02-28T13:39:59;37.20;;;27.73;;
17482;SDS011;8858;52.308;20.994;2024-02-28T13:42:28;32.43;;;25.67;;
17482;SDS011;8858;52.308;20.994;2024-02-28T13:45:02;32.63;;;25.53;;
17482;SDS011;8858;52.308;20.994;2024-02-28T13:47:33;31.97;;;25.20;;
17482;SDS011;8858;52.308;20.994;2024-02-28T13:50:02;32.37;;;24.77;;
17482;SDS011;8858;52.308;20.994;2024-02-28T13:52:31;35.30;;;26.13;;
17482;SDS011;8858;52.308;20.994;2024-02-28T13:55:00;35.00;;;25.47;;
17482;SDS011;8858;52.308;20.994;2024-02-28T13:57:28;30.90;;;25.37;;
17482;SDS011;8858;52.308;20.994;2024-02-28T13:59:57;35.00;;;26.07;;
17482;SDS011;8858;52.308;20.994;2024-02-28T14:02:26;36.43;;;27.13;;
17482;SDS011;8858;52.308;20.994;2024-02-28T14:04:55;34.13;;;26.47;;
17482;SDS011;8858;52.308;20.994;2024-02-28T14:07:24;35.50;;;26.23;;
17482;SDS011;8858;52.308;20.994;2024-02-28T14:09:52;32.57;;;24.83;;
17482;SDS011;8858;52.308;20.994;2024-02-28T14:12:21;38.93;;;26.93;;
17482;SDS011;8858;52.308;20.994;2024-02-28T14:14:49;33.23;;;24.57;;
17482;SDS011;8858;52.308;20.994;2024-02-28T14:17:18;37.50;;;25.10;;
17482;SDS011;8858;52.308;20.994;2024-02-28T14:19:47;33.93;;;24.03;;
17482;SDS011;8858;52.308;20.994;2024-02-28T14:22:18;34.43;;;24.17;;
17482;SDS011;8858;52.308;20.994;2024-02-28T14:24:46;32.63;;;22.53;;
17482;SDS011;8858;52.308;20.994;2024-02-28T14:27:15;32.77;;;21.80;;
17482;SDS011;8858;52.308;20.994;2024-02-28T14:29:46;31.07;;;21.10;;
17482;SDS011;8858;52.308;20.994;2024-02-28T14:32:14;30.03;;;21.07;;
17482;SDS011;8858;52.308;20.994;2024-02-28T14:34:43;25.73;;;19.00;;
17482;SDS011;8858;52.308;20.994;2024-02-28T14:37:14;23.07;;;17.67;;